sensor_id;sensor_type;location;lat;lon;timestamp;pressure;altitude;pressure_sealevel;temperature;humidity
73628;BME280;61923;51.846;5.856;2022-12-18T00:01:04;102753.53;;;10.41;60.45
73628;BME280;61923;51.846;5.856;2022-12-18T00:03:34;102749.25;;;10.40;60.47
73628;BME280;61923;51.846;5.856;2022-12-18T00:06:00;102752.78;;;10.39;60.83
73628;BME280;61923;51.846;5.856;2022-12-18T00:08:25;102750.25;;;10.38;60.92
73628;BME280;61923;51.846;5.856;2022-12-18T00:10:51;102751.94;;;10.39;60.59
73628;BME280;61923;51.846;5.856;2022-12-18T00:13:16;102756.28;;;10.38;60.67
73628;BME280;61923;51.846;5.856;2022-12-18T00:15:41;102754.63;;;10.37;60.67
73628;BME280;61923;51.846;5.856;2022-12-18T00:18:07;102756.47;;;10.35;60.09
73628;BME280;61923;51.846;5.856;2022-12-18T00:20:39;102757.22;;;10.37;60.57
73628;BME280;61923;51.846;5.856;2022-12-18T00:23:06;102750.34;;;10.36;60.25
73628;BME280;61923;51.846;5.856;2022-12-18T00:25:36;102746.06;;;10.35;60.15
73628;BME280;61923;51.846;5.856;2022-12-18T00:28:02;102737.53;;;10.33;60.42
73628;BME280;61923;51.846;5.856;2022-12-18T00:30:28;102727.31;;;10.28;60.62
73628;BME280;61923;51.846;5.856;2022-12-18T00:32:54;102730.56;;;10.33;60.55
73628;BME280;61923;51.846;5.856;2022-12-18T00:35:19;102734.91;;;10.33;60.20
73628;BME280;61923;51.846;5.856;2022-12-18T00:37:45;102730.63;;;10.32;60.63
73628;BME280;61923;51.846;5.856;2022-12-18T00:40:11;102725.44;;;10.32;60.61
73628;BME280;61923;51.846;5.856;2022-12-18T00:42:36;102725.44;;;10.32;60.58
73628;BME280;61923;51.846;5.856;2022-12-18T00:45:22;102730.63;;;10.32;60.25
73628;BME280;61923;51.846;5.856;2022-12-18T00:47:47;102737.66;;;10.30;60.47
73628;BME280;61923;51.846;5.856;2022-12-18T00:50:13;102735.97;;;10.29;60.78
73628;BME280;61923;51.846;5.856;2022-12-18T00:52:39;102746.22;;;10.32;60.62
73628;BME280;61923;51.846;5.856;2022-12-18T00:55:05;102736.88;;;10.28;60.43
73628;BME280;61923;51.846;5.856;2022-12-18T00:57:30;102736.78;;;10.29;60.13
73628;BME280;61923;51.846;5.856;2022-12-18T00:59:55;102741.94;;;10.31;60.39
73628;BME280;61923;51.846;5.856;2022-12-18T01:02:21;102742.72;;;10.33;61.21
73628;BME280;61923;51.846;5.856;2022-12-18T01:04:46;102736.59;;;10.34;61.04
73628;BME280;61923;51.846;5.856;2022-12-18T01:07:12;102735.69;;;10.35;60.89
73628;BME280;61923;51.846;5.856;2022-12-18T01:09:37;102735.69;;;10.35;60.86
73628;BME280;61923;51.846;5.856;2022-12-18T01:12:02;102741.72;;;10.35;60.58
73628;BME280;61923;51.846;5.856;2022-12-18T01:14:28;102739.03;;;10.37;60.85
73628;BME280;61923;51.846;5.856;2022-12-18T01:16:53;102734.84;;;10.34;60.70
73628;BME280;61923;51.846;5.856;2022-12-18T01:19:19;102730.50;;;10.35;60.41
73628;BME280;61923;51.846;5.856;2022-12-18T01:21:44;102716.66;;;10.34;60.32
73628;BME280;61923;51.846;5.856;2022-12-18T01:24:11;102722.69;;;10.35;60.53
73628;BME280;61923;51.846;5.856;2022-12-18T01:26:37;102727.06;;;10.34;60.79
73628;BME280;61923;51.846;5.856;2022-12-18T01:29:02;102714.91;;;10.35;60.71
73628;BME280;61923;51.846;5.856;2022-12-18T01:31:30;102720.09;;;10.35;61.03
73628;BME280;61923;51.846;5.856;2022-12-18T01:33:56;102723.69;;;10.32;61.21
73628;BME280;61923;51.846;5.856;2022-12-18T01:36:30;102726.19;;;10.34;60.51
73628;BME280;61923;51.846;5.856;2022-12-18T01:38:56;102726.31;;;10.32;61.02
73628;BME280;61923;51.846;5.856;2022-12-18T01:41:26;102732.31;;;10.33;60.59
73628;BME280;61923;51.846;5.856;2022-12-18T01:43:55;102725.56;;;10.29;60.61
73628;BME280;61923;51.846;5.856;2022-12-18T01:46:23;102729.88;;;10.30;60.96
73628;BME280;61923;51.846;5.856;2022-12-18T01:48:52;102735.97;;;10.29;60.73
73628;BME280;61923;51.846;5.856;2022-12-18T01:51:20;102738.56;;;10.29;61.25
73628;BME280;61923;51.846;5.856;2022-12-18T01:53:47;102733.38;;;10.29;61.02
73628;BME280;61923;51.846;5.856;2022-12-18T01:56:18;102740.28;;;10.28;60.60
73628;BME280;61923;51.846;5.856;2022-12-18T02:01:10;102730.97;;;10.24;60.93
73628;BME280;61923;51.846;5.856;2022-12-18T02:03:36;102719.69;;;10.25;60.77
73628;BME280;61923;51.846;5.856;2022-12-18T02:09:03;102732.69;;;10.25;60.58
73628;BME280;61923;51.846;5.856;2022-12-18T02:22:48;102734.59;;;10.22;60.56
73628;BME280;61923;51.846;5.856;2022-12-18T02:28:21;102728.50;;;10.23;60.92
73628;BME280;61923;51.846;5.856;2022-12-18T02:30:49;102729.38;;;10.22;61.02
73628;BME280;61923;51.846;5.856;2022-12-18T02:33:19;102723.28;;;10.23;61.42
73628;BME280;61923;51.846;5.856;2022-12-18T02:35:46;102727.56;;;10.24;61.16
73628;BME280;61923;51.846;5.856;2022-12-18T02:38:14;102718.94;;;10.23;60.84
73628;BME280;61923;51.846;5.856;2022-12-18T02:40:41;102727.47;;;10.25;60.75
73628;BME280;61923;51.846;5.856;2022-12-18T02:43:11;102727.41;;;10.27;61.24
73628;BME280;61923;51.846;5.856;2022-12-18T02:45:47;102723.88;;;10.28;61.08
73628;BME280;61923;51.846;5.856;2022-12-18T02:48:13;102721.28;;;10.28;60.77
73628;BME280;61923;51.846;5.856;2022-12-18T02:51:27;102719.53;;;10.28;61.05
73628;BME280;61923;51.846;5.856;2022-12-18T02:54:02;102723.88;;;10.28;60.88
73628;BME280;61923;51.846;5.856;2022-12-18T02:56:52;102720.69;;;10.23;60.49
73628;BME280;61923;51.846;5.856;2022-12-18T02:59:38;102723.06;;;10.27;60.67
73628;BME280;61923;51.846;5.856;2022-12-18T03:02:25;102714.44;;;10.27;61.04
73628;BME280;61923;51.846;5.856;2022-12-18T03:05:10;102712.75;;;10.26;60.80
73628;BME280;61923;51.846;5.856;2022-12-18T03:07:44;102720.53;;;10.26;60.90
73628;BME280;61923;51.846;5.856;2022-12-18T03:10:16;102715.34;;;10.26;61.90
73628;BME280;61923;51.846;5.856;2022-12-18T03:13:06;102715.34;;;10.26;60.73
73628;BME280;61923;51.846;5.856;2022-12-18T03:15:40;102710.13;;;10.26;60.64
73628;BME280;61923;51.846;5.856;2022-12-18T03:18:13;102705.13;;;10.23;60.93
73628;BME280;61923;51.846;5.856;2022-12-18T03:20:44;102712.75;;;10.26;60.52
73628;BME280;61923;51.846;5.856;2022-12-18T03:23:18;102710.13;;;10.26;61.13
73628;BME280;61923;51.846;5.856;2022-12-18T03:25:47;102714.50;;;10.25;60.95
73628;BME280;61923;51.846;5.856;2022-12-18T03:28:21;102702.34;;;10.26;60.96
73628;BME280;61923;51.846;5.856;2022-12-18T03:30:51;102692.28;;;10.20;60.97
73628;BME280;61923;51.846;5.856;2022-12-18T03:33:25;102698.91;;;10.25;61.47
73628;BME280;61923;51.846;5.856;2022-12-18T03:35:52;102692.91;;;10.25;61.62
73628;BME280;61923;51.846;5.856;2022-12-18T03:38:18;102680.81;;;10.24;61.20
73628;BME280;61923;51.846;5.856;2022-12-18T03:46:03;102678.28;;;10.22;60.79
73628;BME280;61923;51.846;5.856;2022-12-18T03:48:52;102676.69;;;10.20;61.00
73628;BME280;61923;51.846;5.856;2022-12-18T03:51:46;102676.69;;;10.20;60.81
73628;BME280;61923;51.846;5.856;2022-12-18T03:54:14;102673.28;;;10.19;60.94
73628;BME280;61923;51.846;5.856;2022-12-18T03:56:44;102669.84;;;10.19;60.75
73628;BME280;61923;51.846;5.856;2022-12-18T03:59:12;102672.44;;;10.19;60.75
73628;BME280;61923;51.846;5.856;2022-12-18T04:01:41;102672.44;;;10.19;61.61
73628;BME280;61923;51.846;5.856;2022-12-18T04:04:08;102667.25;;;10.19;60.99
73628;BME280;61923;51.846;5.856;2022-12-18T04:06:36;102661.13;;;10.20;61.51
73628;BME280;61923;51.846;5.856;2022-12-18T04:09:03;102668.91;;;10.20;60.98
73628;BME280;61923;51.846;5.856;2022-12-18T04:11:29;102661.19;;;10.18;61.74
73628;BME280;61923;51.846;5.856;2022-12-18T04:13:56;102668.09;;;10.19;60.96
73628;BME280;61923;51.846;5.856;2022-12-18T04:16:26;102662.13;;;10.17;61.15
73628;BME280;61923;51.846;5.856;2022-12-18T04:18:52;102663.66;;;10.21;61.35
73628;BME280;61923;51.846;5.856;2022-12-18T04:21:17;102661.88;;;10.22;61.16
73628;BME280;61923;51.846;5.856;2022-12-18T04:23:43;102653.19;;;10.23;61.30
73628;BME280;61923;51.846;5.856;2022-12-18T04:26:08;102645.47;;;10.21;60.85
73628;BME280;61923;51.846;5.856;2022-12-18T04:28:33;102644.53;;;10.22;60.68
73628;BME280;61923;51.846;5.856;2022-12-18T04:30:59;102640.22;;;10.23;60.64
73628;BME280;61923;51.846;5.856;2022-12-18T04:33:24;102628.06;;;10.23;60.60
73628;BME280;61923;51.846;5.856;2022-12-18T04:35:49;102639.28;;;10.24;60.26
73628;BME280;61923;51.846;5.856;2022-12-18T04:38:15;102633.25;;;10.23;60.54
73628;BME280;61923;51.846;5.856;2022-12-18T04:40:40;102641.94;;;10.22;61.26
73628;BME280;61923;51.846;5.856;2022-12-18T04:43:06;102643.63;;;10.23;60.77
73628;BME280;61923;51.846;5.856;2022-12-18T04:45:31;102641.03;;;10.23;61.10
73628;BME280;61923;51.846;5.856;2022-12-18T04:48:02;102651.34;;;10.25;60.87
73628;BME280;61923;51.846;5.856;2022-12-18T04:50:27;102640.28;;;10.21;61.57
73628;BME280;61923;51.846;5.856;2022-12-18T04:52:54;102651.50;;;10.22;60.65
73628;BME280;61923;51.846;5.856;2022-12-18T04:55:19;102649.97;;;10.17;60.46
73628;BME280;61923;51.846;5.856;2022-12-18T04:57:44;102655.16;;;10.17;60.82
73628;BME280;61923;51.846;5.856;2022-12-18T05:00:10;102664.66;;;10.19;60.62
73628;BME280;61923;51.846;5.856;2022-12-18T05:02:36;102665.56;;;10.17;61.11
73628;BME280;61923;51.846;5.856;2022-12-18T05:05:02;102669.84;;;10.19;60.96
73628;BME280;61923;51.846;5.856;2022-12-18T05:07:27;102667.31;;;10.17;61.34
73628;BME280;61923;51.846;5.856;2022-12-18T05:09:52;102675.94;;;10.17;61.53
73628;BME280;61923;51.846;5.856;2022-12-18T05:12:18;102682.91;;;10.17;61.29
73628;BME280;61923;51.846;5.856;2022-12-18T05:14:43;102683.81;;;10.16;61.25
73628;BME280;61923;51.846;5.856;2022-12-18T05:17:08;102688.16;;;10.15;60.81
73628;BME280;61923;51.846;5.856;2022-12-18T05:19:34;102685.63;;;10.14;60.59
73628;BME280;61923;51.846;5.856;2022-12-18T05:21:59;102688.16;;;10.15;61.21
73628;BME280;61923;51.846;5.856;2022-12-18T05:24:25;102682.16;;;10.15;61.16
73628;BME280;61923;51.846;5.856;2022-12-18T05:26:50;102697.72;;;10.15;60.55
73628;BME280;61923;51.846;5.856;2022-12-18T05:29:15;102701.38;;;10.11;60.68
73628;BME280;61923;51.846;5.856;2022-12-18T05:31:41;102705.56;;;10.13;60.95
73628;BME280;61923;51.846;5.856;2022-12-18T05:34:06;102712.47;;;10.14;60.91
73628;BME280;61923;51.846;5.856;2022-12-18T05:36:32;102704.75;;;10.13;61.18
73628;BME280;61923;51.846;5.856;2022-12-18T05:38:57;102703.06;;;10.12;60.63
73628;BME280;61923;51.846;5.856;2022-12-18T05:41:23;102705.56;;;10.13;60.89
73628;BME280;61923;51.846;5.856;2022-12-18T05:43:48;102702.97;;;10.13;61.76
73628;BME280;61923;51.846;5.856;2022-12-18T05:46:16;102705.44;;;10.16;61.59
73628;BME280;61923;51.846;5.856;2022-12-18T05:48:43;102713.13;;;10.18;61.10
73628;BME280;61923;51.846;5.856;2022-12-18T05:51:11;102705.25;;;10.20;61.32
73628;BME280;61923;51.846;5.856;2022-12-18T05:53:37;102688.94;;;10.17;61.49
73628;BME280;61923;51.846;5.856;2022-12-18T05:56:05;102688.03;;;10.19;61.40
73628;BME280;61923;51.846;5.856;2022-12-18T05:58:31;102682.66;;;10.22;61.22
73628;BME280;61923;51.846;5.856;2022-12-18T06:00:57;102679.16;;;10.23;60.88
73628;BME280;61923;51.846;5.856;2022-12-18T06:03:23;102675.63;;;10.24;61.04
73628;BME280;61923;51.846;5.856;2022-12-18T06:05:48;102660.97;;;10.23;60.52
73628;BME280;61923;51.846;5.856;2022-12-18T06:08:14;102657.53;;;10.22;60.96
73628;BME280;61923;51.846;5.856;2022-12-18T06:10:40;102648.91;;;10.22;60.99
73628;BME280;61923;51.846;5.856;2022-12-18T06:13:06;102658.38;;;10.23;61.18
73628;BME280;61923;51.846;5.856;2022-12-18T06:15:32;102653.19;;;10.23;60.61
73628;BME280;61923;51.846;5.856;2022-12-18T06:17:58;102639.44;;;10.21;60.76
73628;BME280;61923;51.846;5.856;2022-12-18T06:20:23;102646.47;;;10.19;60.84
73628;BME280;61923;51.846;5.856;2022-12-18T06:22:49;102642.03;;;10.21;60.46
73628;BME280;61923;51.846;5.856;2022-12-18T06:25:14;102646.47;;;10.19;60.64
73628;BME280;61923;51.846;5.856;2022-12-18T06:27:40;102648.22;;;10.18;60.98
73628;BME280;61923;51.846;5.856;2022-12-18T06:30:05;102651.81;;;10.15;60.82
73628;BME280;61923;51.846;5.856;2022-12-18T06:32:31;102650.81;;;10.18;60.91
73628;BME280;61923;51.846;5.856;2022-12-18T06:34:56;102637.19;;;10.14;60.58
73628;BME280;61923;51.846;5.856;2022-12-18T06:37:22;102640.44;;;10.18;60.59
73628;BME280;61923;51.846;5.856;2022-12-18T06:39:51;102635.41;;;10.15;60.69
73628;BME280;61923;51.846;5.856;2022-12-18T06:42:17;102632.75;;;10.16;60.78
73628;BME280;61923;51.846;5.856;2022-12-18T06:44:42;102626.00;;;10.12;61.15
73628;BME280;61923;51.846;5.856;2022-12-18T06:47:08;102629.38;;;10.14;60.84
73628;BME280;61923;51.846;5.856;2022-12-18T06:49:33;102632.81;;;10.15;61.37
73628;BME280;61923;51.846;5.856;2022-12-18T06:51:58;102619.84;;;10.15;60.96
73628;BME280;61923;51.846;5.856;2022-12-18T06:54:24;102614.72;;;10.13;61.62
73628;BME280;61923;51.846;5.856;2022-12-18T06:56:49;102607.81;;;10.12;60.70
73628;BME280;61923;51.846;5.856;2022-12-18T06:59:14;102619.06;;;10.13;60.44
73628;BME280;61923;51.846;5.856;2022-12-18T07:01:40;102617.38;;;10.12;60.68
73628;BME280;61923;51.846;5.856;2022-12-18T07:04:06;102607.94;;;10.11;61.00
73628;BME280;61923;51.846;5.856;2022-12-18T07:06:32;102609.66;;;10.10;60.87
73628;BME280;61923;51.846;5.856;2022-12-18T07:08:57;102614.84;;;10.10;60.54
73628;BME280;61923;51.846;5.856;2022-12-18T07:11:23;102600.22;;;10.09;60.76
73628;BME280;61923;51.846;5.856;2022-12-18T07:13:48;102607.06;;;10.10;60.71
73628;BME280;61923;51.846;5.856;2022-12-18T07:16:16;102600.97;;;10.11;61.11
73628;BME280;61923;51.846;5.856;2022-12-18T07:18:42;102606.16;;;10.11;61.48
73628;BME280;61923;51.846;5.856;2022-12-18T07:21:09;102606.16;;;10.11;61.00
73628;BME280;61923;51.846;5.856;2022-12-18T07:23:35;102612.13;;;10.13;60.53
73628;BME280;61923;51.846;5.856;2022-12-18T07:26:05;102611.22;;;10.14;61.04
73628;BME280;61923;51.846;5.856;2022-12-18T07:28:32;102614.56;;;10.16;61.28
73628;BME280;61923;51.846;5.856;2022-12-18T07:31:05;102604.94;;;10.19;61.23
73628;BME280;61923;51.846;5.856;2022-12-18T07:33:32;102604.06;;;10.18;61.06
73628;BME280;61923;51.846;5.856;2022-12-18T07:35:59;102601.41;;;10.20;60.85
73628;BME280;61923;51.846;5.856;2022-12-18T07:38:25;102596.81;;;10.25;60.75
73628;BME280;61923;51.846;5.856;2022-12-18T07:40:50;102599.41;;;10.25;60.72
73628;BME280;61923;51.846;5.856;2022-12-18T07:43:15;102589.19;;;10.22;60.69
73628;BME280;61923;51.846;5.856;2022-12-18T07:45:42;102586.44;;;10.25;61.02
73628;BME280;61923;51.846;5.856;2022-12-18T07:48:07;102590.69;;;10.26;60.45
73628;BME280;61923;51.846;5.856;2022-12-18T07:50:33;102576.06;;;10.25;60.74
73628;BME280;61923;51.846;5.856;2022-12-18T07:52:58;102571.75;;;10.24;61.62
73628;BME280;61923;51.846;5.856;2022-12-18T07:56:11;102563.97;;;10.24;60.90
73628;BME280;61923;51.846;5.856;2022-12-18T08:01:08;102547.56;;;10.23;61.22
73628;BME280;61923;51.846;5.856;2022-12-18T08:03:34;102543.28;;;10.22;61.54
73628;BME280;61923;51.846;5.856;2022-12-18T08:06:01;102540.59;;;10.24;61.00
73628;BME280;61923;51.846;5.856;2022-12-18T08:08:27;102546.81;;;10.21;61.20
73628;BME280;61923;51.846;5.856;2022-12-18T08:10:52;102555.28;;;10.25;60.59
73628;BME280;61923;51.846;5.856;2022-12-18T08:13:18;102559.53;;;10.26;61.29
73628;BME280;61923;51.846;5.856;2022-12-18T08:15:43;102562.13;;;10.26;60.97
73628;BME280;61923;51.846;5.856;2022-12-18T08:18:08;102556.19;;;10.24;61.52
73628;BME280;61923;51.846;5.856;2022-12-18T08:20:34;102555.09;;;10.28;61.86
73628;BME280;61923;51.846;5.856;2022-12-18T08:22:59;102557.69;;;10.28;61.84
73628;BME280;61923;51.846;5.856;2022-12-18T08:25:25;102545.50;;;10.30;60.22
73628;BME280;61923;51.846;5.856;2022-12-18T08:27:50;102542.00;;;10.31;59.19
73628;BME280;61923;51.846;5.856;2022-12-18T08:30:15;102539.97;;;10.36;59.35
73628;BME280;61923;51.846;5.856;2022-12-18T08:32:41;102533.78;;;10.39;59.79
73628;BME280;61923;51.846;5.856;2022-12-18T08:35:06;102536.28;;;10.40;59.77
73628;BME280;61923;51.846;5.856;2022-12-18T08:37:33;102534.44;;;10.42;59.22
73628;BME280;61923;51.846;5.856;2022-12-18T08:39:59;102537.78;;;10.44;59.20
73628;BME280;61923;51.846;5.856;2022-12-18T08:42:25;102540.38;;;10.44;60.07
73628;BME280;61923;51.846;5.856;2022-12-18T08:45:09;102552.47;;;10.45;59.90
73628;BME280;61923;51.846;5.856;2022-12-18T08:47:34;102540.56;;;10.41;60.52
73628;BME280;61923;51.846;5.856;2022-12-18T08:49:59;102544.75;;;10.44;60.31
73628;BME280;61923;51.846;5.856;2022-12-18T08:52:25;102535.28;;;10.43;60.14
73628;BME280;61923;51.846;5.856;2022-12-18T08:54:50;102540.63;;;10.40;59.57
73628;BME280;61923;51.846;5.856;2022-12-18T08:57:16;102527.59;;;10.41;60.24
73628;BME280;61923;51.846;5.856;2022-12-18T08:59:41;102540.38;;;10.44;59.69
73628;BME280;61923;51.846;5.856;2022-12-18T09:02:09;102544.81;;;10.42;60.11
73628;BME280;61923;51.846;5.856;2022-12-18T09:04:35;102546.44;;;10.45;59.32
73628;BME280;61923;51.846;5.856;2022-12-18T09:07:00;102557.56;;;10.47;59.35
73628;BME280;61923;51.846;5.856;2022-12-18T09:09:26;102554.78;;;10.50;60.59
73628;BME280;61923;51.846;5.856;2022-12-18T09:11:51;102542.66;;;10.50;59.82
73628;BME280;61923;51.846;5.856;2022-12-18T09:14:17;102533.94;;;10.51;60.70
73628;BME280;61923;51.846;5.856;2022-12-18T09:16:42;102536.53;;;10.51;59.98
73628;BME280;61923;51.846;5.856;2022-12-18T09:19:08;102545.09;;;10.53;60.48
73628;BME280;61923;51.846;5.856;2022-12-18T09:21:35;102545.00;;;10.55;59.99
73628;BME280;61923;51.846;5.856;2022-12-18T09:24:00;102544.94;;;10.56;59.71
73628;BME280;61923;51.846;5.856;2022-12-18T09:26:27;102538.88;;;10.56;60.48
73628;BME280;61923;51.846;5.856;2022-12-18T09:28:52;102547.53;;;10.56;60.07
73628;BME280;61923;51.846;5.856;2022-12-18T09:31:20;102537.13;;;10.56;60.18
73628;BME280;61923;51.846;5.856;2022-12-18T09:33:46;102543.16;;;10.57;59.37
73628;BME280;61923;51.846;5.856;2022-12-18T09:36:13;102548.16;;;10.60;60.11
73628;BME280;61923;51.846;5.856;2022-12-18T09:38:39;102542.97;;;10.60;60.21
73628;BME280;61923;51.846;5.856;2022-12-18T09:41:13;102541.13;;;10.62;59.40
73628;BME280;61923;51.846;5.856;2022-12-18T09:43:48;102526.47;;;10.61;59.23
73628;BME280;61923;51.846;5.856;2022-12-18T09:46:37;102523.88;;;10.61;59.27
73628;BME280;61923;51.846;5.856;2022-12-18T09:49:11;102512.75;;;10.59;59.05
73628;BME280;61923;51.846;5.856;2022-12-18T09:51:47;102523.06;;;10.61;59.63
73628;BME280;61923;51.846;5.856;2022-12-18T09:54:30;102515.25;;;10.61;59.42
73628;BME280;61923;51.846;5.856;2022-12-18T09:56:56;102512.66;;;10.61;59.63
73628;BME280;61923;51.846;5.856;2022-12-18T09:59:33;102516.91;;;10.62;59.14
73628;BME280;61923;51.846;5.856;2022-12-18T10:02:20;102505.78;;;10.60;59.49
73628;BME280;61923;51.846;5.856;2022-12-18T10:05:11;102502.25;;;10.61;59.38
73628;BME280;61923;51.846;5.856;2022-12-18T10:07:40;102503.09;;;10.61;59.17
73628;BME280;61923;51.846;5.856;2022-12-18T10:16:09;102496.22;;;10.60;58.53
73628;BME280;61923;51.846;5.856;2022-12-18T10:27:15;102478.28;;;10.55;58.88
73628;BME280;61923;51.846;5.856;2022-12-18T10:29:45;102472.94;;;10.59;58.71
73628;BME280;61923;51.846;5.856;2022-12-18T10:32:17;102485.66;;;10.63;58.64
73628;BME280;61923;51.846;5.856;2022-12-18T10:34:46;102486.50;;;10.64;58.55
73628;BME280;61923;51.846;5.856;2022-12-18T10:37:19;102475.25;;;10.63;58.98
73628;BME280;61923;51.846;5.856;2022-12-18T10:39:46;102467.75;;;10.59;58.36
73628;BME280;61923;51.846;5.856;2022-12-18T10:42:21;102473.50;;;10.64;59.26
73628;BME280;61923;51.846;5.856;2022-12-18T10:45:01;102472.59;;;10.65;59.37
73628;BME280;61923;51.846;5.856;2022-12-18T10:47:27;102464.88;;;10.63;59.25
73628;BME280;61923;51.846;5.856;2022-12-18T10:49:53;102455.31;;;10.64;58.75
73628;BME280;61923;51.846;5.856;2022-12-18T10:52:22;102450.13;;;10.64;58.48
73628;BME280;61923;51.846;5.856;2022-12-18T10:54:50;102441.56;;;10.62;58.95
73628;BME280;61923;51.846;5.856;2022-12-18T10:57:35;102444.91;;;10.64;59.15
73628;BME280;61923;51.846;5.856;2022-12-18T11:02:46;102425.06;;;10.63;59.82
73628;BME280;61923;51.846;5.856;2022-12-18T11:05:32;102421.25;;;10.68;59.62
73628;BME280;61923;51.846;5.856;2022-12-18T11:07:59;102424.72;;;10.69;59.77
73628;BME280;61923;51.846;5.856;2022-12-18T11:10:30;102429.72;;;10.72;60.35
73628;BME280;61923;51.846;5.856;2022-12-18T11:12:56;102425.47;;;10.71;59.78
73628;BME280;61923;51.846;5.856;2022-12-18T11:15:27;102421.09;;;10.71;59.49
73628;BME280;61923;51.846;5.856;2022-12-18T11:17:53;102420.25;;;10.71;60.15
73628;BME280;61923;51.846;5.856;2022-12-18T11:20:42;102412.38;;;10.72;59.67
73628;BME280;61923;51.846;5.856;2022-12-18T11:23:12;102411.53;;;10.72;59.63
73628;BME280;61923;51.846;5.856;2022-12-18T11:25:39;102404.69;;;10.71;59.91
73628;BME280;61923;51.846;5.856;2022-12-18T11:28:37;102404.69;;;10.71;59.45
73628;BME280;61923;51.846;5.856;2022-12-18T11:31:16;102396.06;;;10.70;59.83
73628;BME280;61923;51.846;5.856;2022-12-18T11:33:46;102386.56;;;10.69;59.66
73628;BME280;61923;51.846;5.856;2022-12-18T11:36:12;102385.66;;;10.70;59.42
73628;BME280;61923;51.846;5.856;2022-12-18T11:38:40;102380.34;;;10.72;59.69
73628;BME280;61923;51.846;5.856;2022-12-18T11:43:58;102390.75;;;10.72;59.38
73628;BME280;61923;51.846;5.856;2022-12-18T11:46:39;102388.16;;;10.72;59.46
73628;BME280;61923;51.846;5.856;2022-12-18T11:49:35;102395.19;;;10.70;59.08
73628;BME280;61923;51.846;5.856;2022-12-18T11:52:18;102392.50;;;10.71;59.01
73628;BME280;61923;51.846;5.856;2022-12-18T11:54:44;102386.50;;;10.71;59.06
73628;BME280;61923;51.846;5.856;2022-12-18T12:00:18;102379.53;;;10.71;58.63
73628;BME280;61923;51.846;5.856;2022-12-18T12:06:06;102376.25;;;10.68;58.54
73628;BME280;61923;51.846;5.856;2022-12-18T12:08:44;102366.63;;;10.70;58.64
73628;BME280;61923;51.846;5.856;2022-12-18T12:11:27;102356.22;;;10.70;58.97
73628;BME280;61923;51.846;5.856;2022-12-18T12:17:08;102345.91;;;10.68;58.96
73628;BME280;61923;51.846;5.856;2022-12-18T12:28:11;102336.47;;;10.67;58.93
73628;BME280;61923;51.846;5.856;2022-12-18T12:31:00;102341.66;;;10.67;59.88
73628;BME280;61923;51.846;5.856;2022-12-18T12:33:49;102344.34;;;10.66;59.38
73628;BME280;61923;51.846;5.856;2022-12-18T12:36:23;102335.78;;;10.64;60.58
73628;BME280;61923;51.846;5.856;2022-12-18T12:38:56;102331.53;;;10.63;59.48
73628;BME280;61923;51.846;5.856;2022-12-18T12:41:27;102328.94;;;10.63;59.35
73628;BME280;61923;51.846;5.856;2022-12-18T12:44:29;102320.94;;;10.66;59.30
73628;BME280;61923;51.846;5.856;2022-12-18T12:46:59;102315.75;;;10.66;59.76
73628;BME280;61923;51.846;5.856;2022-12-18T12:49:27;102323.47;;;10.67;60.32
73628;BME280;61923;51.846;5.856;2022-12-18T12:52:05;102317.31;;;10.68;60.55
73628;BME280;61923;51.846;5.856;2022-12-18T12:54:32;102314.72;;;10.68;60.60
73628;BME280;61923;51.846;5.856;2022-12-18T12:57:22;102306.19;;;10.66;60.27
73628;BME280;61923;51.846;5.856;2022-12-18T13:00:03;102291.47;;;10.67;61.30
73628;BME280;61923;51.846;5.856;2022-12-18T13:07:52;102283.47;;;10.70;61.42
73628;BME280;61923;51.846;5.856;2022-12-18T13:10:24;102278.28;;;10.70;61.99
73628;BME280;61923;51.846;5.856;2022-12-18T13:15:40;102278.28;;;10.70;61.74
73628;BME280;61923;51.846;5.856;2022-12-18T13:34:22;102266.41;;;10.66;60.75
73628;BME280;61923;51.846;5.856;2022-12-18T13:36:48;102272.53;;;10.65;60.17
73628;BME280;61923;51.846;5.856;2022-12-18T13:41:42;102276.25;;;10.61;60.01
73628;BME280;61923;51.846;5.856;2022-12-18T13:46:55;102261.56;;;10.60;60.30
73628;BME280;61923;51.846;5.856;2022-12-18T13:49:25;102258.06;;;10.61;60.32
73628;BME280;61923;51.846;5.856;2022-12-18T13:51:54;102252.84;;;10.61;59.71
73628;BME280;61923;51.846;5.856;2022-12-18T13:56:57;102253.03;;;10.57;60.41
73628;BME280;61923;51.846;5.856;2022-12-18T13:59:25;102247.84;;;10.57;59.68
73628;BME280;61923;51.846;5.856;2022-12-18T14:01:55;102241.97;;;10.54;59.76
73628;BME280;61923;51.846;5.856;2022-12-18T14:04:34;102240.13;;;10.56;60.08
73628;BME280;61923;51.846;5.856;2022-12-18T14:07:05;102232.44;;;10.54;60.29
73628;BME280;61923;51.846;5.856;2022-12-18T14:09:37;102227.25;;;10.54;60.15
73628;BME280;61923;51.846;5.856;2022-12-18T14:12:05;102226.41;;;10.54;61.29
73628;BME280;61923;51.846;5.856;2022-12-18T14:14:51;102223.91;;;10.52;60.20
73628;BME280;61923;51.846;5.856;2022-12-18T14:17:17;102223.16;;;10.50;60.19
73628;BME280;61923;51.846;5.856;2022-12-18T14:19:50;102232.63;;;10.51;59.67
73628;BME280;61923;51.846;5.856;2022-12-18T14:22:21;102224.81;;;10.51;60.05
73628;BME280;61923;51.846;5.856;2022-12-18T14:27:42;102214.44;;;10.51;59.49
73628;BME280;61923;51.846;5.856;2022-12-18T14:30:24;102199.59;;;10.53;61.64
73628;BME280;61923;51.846;5.856;2022-12-18T14:33:12;102197.00;;;10.53;60.13
73628;BME280;61923;51.846;5.856;2022-12-18T14:35:40;102215.19;;;10.53;61.10
73628;BME280;61923;51.846;5.856;2022-12-18T14:40:47;102206.56;;;10.53;60.03
73628;BME280;61923;51.846;5.856;2022-12-18T14:43:16;102195.34;;;10.52;60.42
73628;BME280;61923;51.846;5.856;2022-12-18T14:45:43;102201.28;;;10.54;60.22